METAR AND TAF INFORMATION
METAR FOR LGAV
ADDS - METARS form results

(0705 UTC 28 October 2021)
Data provider http://aviationweather.gov/metar/data/
 
METAR text: LGAV 280650Z 36014KT 9999 SCT035 15/07 Q1023 NOSIG
Conditions at: LGAV (ATHENS/ELEF-VEN , GR) observed 0650 UTC 28 October 2021
Temperature: 15.0°C (59°F)
Dewpoint: 7.0°C (45°F) [RH = 59%]
Pressure (altimeter): 30.21 inches Hg (1023.0 mb)
Winds: from the N (360 degrees) at 16 MPH (14 knots; 7.2 m/s)
Visibility: 6 or more miles (10+ km)
Ceiling: at least 12,000 feet AGL
Clouds: scattered clouds at 3500 feet AGL
Weather: no significant weather observed at this time

METAR text: LGAV 280620Z 36013KT 320V020 9999 SCT035 15/07 Q1023 NOSIG
Conditions at: LGAV (ATHENS/ELEF-VEN , GR) observed 0620 UTC 28 October 2021
Temperature: 15.0°C (59°F)
Dewpoint: 7.0°C (45°F) [RH = 59%]
Pressure (altimeter): 30.21 inches Hg (1023.0 mb)
Winds: from the N (360 degrees) at 15 MPH (13 knots; 6.7 m/s)
Visibility: 6 or more miles (10+ km)
Ceiling: at least 12,000 feet AGL
Clouds: scattered clouds at 3500 feet AGL
Weather: no significant weather observed at this time

Forecast for: LGAV (ATHENS/ELEF-VEN , GR)
Text: TAF LGAV 280500Z 2806/2906 01016G26KT 9999 FEW020 SCT030
Forecast period: 0600 UTC 28 October 2021 to 0600 UTC 29 October 2021
Forecast type: FROM: standard forecast or significant change
Winds: from the N (10 degrees) at 18 MPH (16 knots; 8.2 m/s)
gusting to 30 MPH (26 knots; 13.4 m/s)
Visibility: 6 or more miles (10+ km)
Ceiling: at least 12,000 feet AGL
Clouds: few clouds at 2000 feet AGL
scattered clouds at 3000 feet AGL
Weather: no significant weather forecast for this period

 AIRPORT MAP

 RUNWAY INFORMATION
Runway 03L Runway length 12467 ft Runway width 148 ft
Runway elevation 255 ft Runway displaced threshold 984 ft Runway heading 37
Runway 21R Runway length 12467 ft Runway width 148 ft
Runway elevation 282 ft Runway displaced threshold 984 ft Runway heading 217
Runway 03R Runway length 13123 ft Runway width 148 ft
Runway elevation 271 ft Runway displaced threshold 984 ft Runway heading 37
Runway 21L Runway length 13123 ft Runway width 148 ft
Runway elevation 303 ft Runway displaced threshold 984 ft Runway heading 217

 AIRPORT FREQUENCIES
Type APP Name ATHINAI AP Frequency 126.575 MHZ
Type ARR Name ATHINAI AR Frequency 132.975 MHZ
Type ATIS Name ATIS Frequency 136.125 MHZ
Type CLD Name CLNC DEL Frequency 118.675 MHZ
Type DEP Name ATHINAI DE Frequency 128.95 MHZ
Type DIR Name ATHINAI DI Frequency 121.4 MHZ
Type GND Name GND Frequency 121.75 MHZ
Type INFO Name INFO Frequency 136.025 MHZ
Type PMSV Name ATHINAI VO Frequency 127.8 MHZ
Type RDO Name RDO Frequency 563.7 MHZ
Type TWR Name TWR Frequency 136.275 MHZ

 AIRPORT NEAR NAVIGATION AIDS
Type VOR-DME Name Eleftherios Venizelos Frequency 109600 KHZ
Type VOR-DME Name Eleftherios Venizelos Frequency 117500 KHZ

-